sensor_id;sensor_type;location;lat;lon;timestamp;P1;durP1;ratioP1;P2;durP2;ratioP2
72601;SDS011;60644;55.858;37.390;2023-02-26T00:01:15;27.40;;;11.85;;
72601;SDS011;60644;55.858;37.390;2023-02-26T00:03:43;30.67;;;11.83;;
72601;SDS011;60644;55.858;37.390;2023-02-26T00:06:13;28.63;;;12.40;;
72601;SDS011;60644;55.858;37.390;2023-02-26T00:08:39;32.95;;;13.00;;
72601;SDS011;60644;55.858;37.390;2023-02-26T00:11:06;27.03;;;11.43;;
72601;SDS011;60644;55.858;37.390;2023-02-26T00:13:33;32.65;;;12.57;;
72601;SDS011;60644;55.858;37.390;2023-02-26T00:16:01;31.55;;;12.57;;
72601;SDS011;60644;55.858;37.390;2023-02-26T00:18:27;28.33;;;12.85;;
72601;SDS011;60644;55.858;37.390;2023-02-26T00:20:54;33.80;;;12.97;;
72601;SDS011;60644;55.858;37.390;2023-02-26T00:23:20;26.02;;;11.77;;
72601;SDS011;60644;55.858;37.390;2023-02-26T00:25:46;27.13;;;11.35;;
72601;SDS011;60644;55.858;37.390;2023-02-26T00:28:12;27.42;;;11.40;;
72601;SDS011;60644;55.858;37.390;2023-02-26T00:30:39;28.67;;;12.00;;
72601;SDS011;60644;55.858;37.390;2023-02-26T00:33:05;26.47;;;10.53;;
72601;SDS011;60644;55.858;37.390;2023-02-26T00:35:32;24.10;;;10.25;;
72601;SDS011;60644;55.858;37.390;2023-02-26T00:40:42;22.45;;;8.18;;
72601;SDS011;60644;55.858;37.390;2023-02-26T00:43:13;20.83;;;8.52;;
72601;SDS011;60644;55.858;37.390;2023-02-26T00:45:53;18.30;;;7.47;;
72601;SDS011;60644;55.858;37.390;2023-02-26T00:51:41;18.60;;;7.57;;
72601;SDS011;60644;55.858;37.390;2023-02-26T00:56:28;16.73;;;7.20;;
72601;SDS011;60644;55.858;37.390;2023-02-26T00:58:54;17.23;;;5.93;;
72601;SDS011;60644;55.858;37.390;2023-02-26T01:01:20;14.75;;;5.82;;
72601;SDS011;60644;55.858;37.390;2023-02-26T01:03:47;16.63;;;6.55;;
72601;SDS011;60644;55.858;37.390;2023-02-26T01:06:14;13.90;;;5.88;;
72601;SDS011;60644;55.858;37.390;2023-02-26T01:08:46;16.02;;;6.13;;
72601;SDS011;60644;55.858;37.390;2023-02-26T01:11:38;16.10;;;6.60;;
72601;SDS011;60644;55.858;37.390;2023-02-26T01:14:04;18.20;;;7.32;;
72601;SDS011;60644;55.858;37.390;2023-02-26T01:16:32;15.93;;;6.38;;
72601;SDS011;60644;55.858;37.390;2023-02-26T01:19:14;14.73;;;6.45;;
72601;SDS011;60644;55.858;37.390;2023-02-26T01:21:54;16.13;;;5.70;;
72601;SDS011;60644;55.858;37.390;2023-02-26T01:24:27;14.93;;;6.40;;
72601;SDS011;60644;55.858;37.390;2023-02-26T01:26:55;13.98;;;5.10;;
72601;SDS011;60644;55.858;37.390;2023-02-26T01:29:22;14.18;;;5.93;;
72601;SDS011;60644;55.858;37.390;2023-02-26T01:31:49;14.43;;;5.95;;
72601;SDS011;60644;55.858;37.390;2023-02-26T01:34:41;14.25;;;5.75;;
72601;SDS011;60644;55.858;37.390;2023-02-26T01:42:42;14.05;;;5.30;;
72601;SDS011;60644;55.858;37.390;2023-02-26T01:45:12;13.45;;;5.88;;
72601;SDS011;60644;55.858;37.390;2023-02-26T01:47:55;13.77;;;4.70;;
72601;SDS011;60644;55.858;37.390;2023-02-26T01:50:25;12.33;;;4.97;;
72601;SDS011;60644;55.858;37.390;2023-02-26T01:55:50;12.85;;;4.93;;
72601;SDS011;60644;55.858;37.390;2023-02-26T01:58:21;13.23;;;5.47;;
72601;SDS011;60644;55.858;37.390;2023-02-26T02:00:49;13.05;;;4.75;;
72601;SDS011;60644;55.858;37.390;2023-02-26T02:03:17;11.37;;;4.03;;
72601;SDS011;60644;55.858;37.390;2023-02-26T02:05:49;12.55;;;4.90;;
72601;SDS011;60644;55.858;37.390;2023-02-26T02:08:29;11.48;;;3.88;;
72601;SDS011;60644;55.858;37.390;2023-02-26T02:11:01;12.27;;;4.43;;
72601;SDS011;60644;55.858;37.390;2023-02-26T02:16:30;11.83;;;4.60;;
72601;SDS011;60644;55.858;37.390;2023-02-26T02:24:57;12.13;;;4.03;;
72601;SDS011;60644;55.858;37.390;2023-02-26T02:33:30;11.68;;;4.07;;
72601;SDS011;60644;55.858;37.390;2023-02-26T02:36:07;10.63;;;4.13;;
72601;SDS011;60644;55.858;37.390;2023-02-26T02:38:51;10.63;;;3.28;;
72601;SDS011;60644;55.858;37.390;2023-02-26T02:41:38;10.82;;;4.20;;
72601;SDS011;60644;55.858;37.390;2023-02-26T02:44:10;8.53;;;3.10;;
72601;SDS011;60644;55.858;37.390;2023-02-26T02:46:42;13.27;;;4.30;;
72601;SDS011;60644;55.858;37.390;2023-02-26T02:49:12;10.73;;;3.92;;
72601;SDS011;60644;55.858;37.390;2023-02-26T02:51:51;11.68;;;3.70;;
72601;SDS011;60644;55.858;37.390;2023-02-26T02:56:52;11.13;;;3.40;;
72601;SDS011;60644;55.858;37.390;2023-02-26T02:59:29;8.85;;;3.35;;
72601;SDS011;60644;55.858;37.390;2023-02-26T03:02:13;12.13;;;3.88;;
72601;SDS011;60644;55.858;37.390;2023-02-26T03:04:59;9.73;;;3.67;;
72601;SDS011;60644;55.858;37.390;2023-02-26T03:07:33;10.80;;;4.63;;
72601;SDS011;60644;55.858;37.390;2023-02-26T03:10:12;11.60;;;3.90;;
72601;SDS011;60644;55.858;37.390;2023-02-26T03:12:39;9.95;;;3.70;;
72601;SDS011;60644;55.858;37.390;2023-02-26T03:15:09;11.57;;;3.95;;
72601;SDS011;60644;55.858;37.390;2023-02-26T03:17:42;8.18;;;2.70;;
72601;SDS011;60644;55.858;37.390;2023-02-26T03:20:21;8.95;;;3.50;;
72601;SDS011;60644;55.858;37.390;2023-02-26T03:23:20;10.77;;;3.87;;
72601;SDS011;60644;55.858;37.390;2023-02-26T03:25:52;8.93;;;3.10;;
72601;SDS011;60644;55.858;37.390;2023-02-26T03:31:35;9.70;;;3.40;;
72601;SDS011;60644;55.858;37.390;2023-02-26T03:36:47;8.03;;;2.93;;
72601;SDS011;60644;55.858;37.390;2023-02-26T03:39:28;10.95;;;3.53;;
72601;SDS011;60644;55.858;37.390;2023-02-26T03:42:01;10.63;;;4.25;;
72601;SDS011;60644;55.858;37.390;2023-02-26T03:47:46;12.75;;;4.82;;
72601;SDS011;60644;55.858;37.390;2023-02-26T03:50:40;10.93;;;3.97;;
72601;SDS011;60644;55.858;37.390;2023-02-26T03:53:42;11.55;;;3.85;;
72601;SDS011;60644;55.858;37.390;2023-02-26T03:59:15;12.48;;;4.53;;
72601;SDS011;60644;55.858;37.390;2023-02-26T04:04:21;12.77;;;4.37;;
72601;SDS011;60644;55.858;37.390;2023-02-26T04:06:52;14.40;;;3.95;;
72601;SDS011;60644;55.858;37.390;2023-02-26T04:09:24;13.73;;;4.38;;
72601;SDS011;60644;55.858;37.390;2023-02-26T04:11:54;13.52;;;4.00;;
72601;SDS011;60644;55.858;37.390;2023-02-26T04:14:28;13.40;;;4.68;;
72601;SDS011;60644;55.858;37.390;2023-02-26T04:16:58;10.87;;;4.00;;
72601;SDS011;60644;55.858;37.390;2023-02-26T04:19:24;12.77;;;4.80;;
72601;SDS011;60644;55.858;37.390;2023-02-26T04:21:51;12.23;;;4.78;;
72601;SDS011;60644;55.858;37.390;2023-02-26T04:24:18;12.18;;;4.20;;
72601;SDS011;60644;55.858;37.390;2023-02-26T04:26:45;9.77;;;3.20;;
72601;SDS011;60644;55.858;37.390;2023-02-26T04:29:11;9.93;;;2.20;;
72601;SDS011;60644;55.858;37.390;2023-02-26T04:31:37;10.35;;;4.32;;
72601;SDS011;60644;55.858;37.390;2023-02-26T04:34:06;16.10;;;4.72;;
72601;SDS011;60644;55.858;37.390;2023-02-26T04:36:33;10.38;;;3.92;;
72601;SDS011;60644;55.858;37.390;2023-02-26T04:38:58;10.67;;;3.20;;
72601;SDS011;60644;55.858;37.390;2023-02-26T04:41:24;9.15;;;3.42;;
72601;SDS011;60644;55.858;37.390;2023-02-26T04:43:50;8.23;;;2.97;;
72601;SDS011;60644;55.858;37.390;2023-02-26T04:46:27;11.75;;;3.65;;
72601;SDS011;60644;55.858;37.390;2023-02-26T04:48:53;14.27;;;4.30;;
72601;SDS011;60644;55.858;37.390;2023-02-26T04:51:19;10.10;;;2.83;;
72601;SDS011;60644;55.858;37.390;2023-02-26T04:53:46;8.23;;;2.95;;
72601;SDS011;60644;55.858;37.390;2023-02-26T04:56:12;9.18;;;3.03;;
72601;SDS011;60644;55.858;37.390;2023-02-26T04:58:39;7.57;;;2.20;;
72601;SDS011;60644;55.858;37.390;2023-02-26T05:01:09;9.07;;;3.08;;
72601;SDS011;60644;55.858;37.390;2023-02-26T05:03:41;11.77;;;2.97;;
72601;SDS011;60644;55.858;37.390;2023-02-26T05:06:08;11.02;;;3.50;;
72601;SDS011;60644;55.858;37.390;2023-02-26T05:08:35;9.30;;;2.95;;
72601;SDS011;60644;55.858;37.390;2023-02-26T05:11:09;9.33;;;3.27;;
72601;SDS011;60644;55.858;37.390;2023-02-26T05:13:43;7.45;;;2.13;;
72601;SDS011;60644;55.858;37.390;2023-02-26T05:16:10;6.68;;;2.22;;
72601;SDS011;60644;55.858;37.390;2023-02-26T05:18:36;5.60;;;1.77;;
72601;SDS011;60644;55.858;37.390;2023-02-26T05:21:03;6.15;;;2.20;;
72601;SDS011;60644;55.858;37.390;2023-02-26T05:23:31;6.10;;;1.90;;
72601;SDS011;60644;55.858;37.390;2023-02-26T05:26:00;6.55;;;1.45;;
72601;SDS011;60644;55.858;37.390;2023-02-26T05:28:26;4.20;;;0.90;;
72601;SDS011;60644;55.858;37.390;2023-02-26T05:30:54;5.82;;;1.48;;
72601;SDS011;60644;55.858;37.390;2023-02-26T05:33:21;4.07;;;0.88;;
72601;SDS011;60644;55.858;37.390;2023-02-26T05:35:47;3.77;;;1.10;;
72601;SDS011;60644;55.858;37.390;2023-02-26T05:38:13;4.70;;;0.82;;
72601;SDS011;60644;55.858;37.390;2023-02-26T05:40:39;5.05;;;1.27;;
72601;SDS011;60644;55.858;37.390;2023-02-26T05:43:06;4.75;;;1.17;;
72601;SDS011;60644;55.858;37.390;2023-02-26T05:45:33;4.00;;;0.80;;
72601;SDS011;60644;55.858;37.390;2023-02-26T05:47:59;5.25;;;1.20;;
72601;SDS011;60644;55.858;37.390;2023-02-26T05:50:25;4.20;;;0.60;;
72601;SDS011;60644;55.858;37.390;2023-02-26T05:52:51;4.75;;;0.90;;
72601;SDS011;60644;55.858;37.390;2023-02-26T05:55:17;3.80;;;0.50;;
72601;SDS011;60644;55.858;37.390;2023-02-26T05:57:43;4.10;;;0.70;;
72601;SDS011;60644;55.858;37.390;2023-02-26T06:00:10;5.20;;;1.58;;
72601;SDS011;60644;55.858;37.390;2023-02-26T06:02:40;4.00;;;0.85;;
72601;SDS011;60644;55.858;37.390;2023-02-26T06:05:06;3.00;;;0.60;;
72601;SDS011;60644;55.858;37.390;2023-02-26T06:07:33;3.85;;;0.80;;
72601;SDS011;60644;55.858;37.390;2023-02-26T06:09:59;4.47;;;0.73;;
72601;SDS011;60644;55.858;37.390;2023-02-26T06:12:25;3.55;;;0.40;;
72601;SDS011;60644;55.858;37.390;2023-02-26T06:14:50;3.57;;;0.90;;
72601;SDS011;60644;55.858;37.390;2023-02-26T06:17:16;3.80;;;0.80;;
72601;SDS011;60644;55.858;37.390;2023-02-26T06:19:42;3.85;;;0.80;;
72601;SDS011;60644;55.858;37.390;2023-02-26T06:22:09;3.35;;;0.70;;
72601;SDS011;60644;55.858;37.390;2023-02-26T06:24:35;3.55;;;0.90;;
72601;SDS011;60644;55.858;37.390;2023-02-26T06:27:01;3.25;;;0.70;;
72601;SDS011;60644;55.858;37.390;2023-02-26T06:29:26;3.92;;;0.90;;
72601;SDS011;60644;55.858;37.390;2023-02-26T06:31:52;3.40;;;0.75;;
72601;SDS011;60644;55.858;37.390;2023-02-26T06:34:18;4.90;;;1.17;;
72601;SDS011;60644;55.858;37.390;2023-02-26T06:36:44;4.60;;;1.05;;
72601;SDS011;60644;55.858;37.390;2023-02-26T06:39:10;3.42;;;0.90;;
72601;SDS011;60644;55.858;37.390;2023-02-26T06:41:36;3.97;;;0.80;;
72601;SDS011;60644;55.858;37.390;2023-02-26T06:44:02;3.95;;;0.90;;
72601;SDS011;60644;55.858;37.390;2023-02-26T06:46:28;3.90;;;0.70;;
72601;SDS011;60644;55.858;37.390;2023-02-26T06:48:54;3.97;;;0.83;;
72601;SDS011;60644;55.858;37.390;2023-02-26T06:51:20;3.50;;;0.95;;
72601;SDS011;60644;55.858;37.390;2023-02-26T06:53:46;4.20;;;1.10;;
72601;SDS011;60644;55.858;37.390;2023-02-26T06:56:12;3.07;;;0.60;;
72601;SDS011;60644;55.858;37.390;2023-02-26T06:58:37;4.97;;;1.20;;
72601;SDS011;60644;55.858;37.390;2023-02-26T07:01:03;4.13;;;1.15;;
72601;SDS011;60644;55.858;37.390;2023-02-26T07:03:29;4.10;;;1.10;;
72601;SDS011;60644;55.858;37.390;2023-02-26T07:05:55;3.90;;;1.00;;
72601;SDS011;60644;55.858;37.390;2023-02-26T07:08:21;4.55;;;1.00;;
72601;SDS011;60644;55.858;37.390;2023-02-26T07:10:48;4.68;;;1.05;;
72601;SDS011;60644;55.858;37.390;2023-02-26T07:13:14;4.63;;;1.07;;
72601;SDS011;60644;55.858;37.390;2023-02-26T07:15:41;4.35;;;1.45;;
72601;SDS011;60644;55.858;37.390;2023-02-26T07:18:07;5.07;;;1.30;;
72601;SDS011;60644;55.858;37.390;2023-02-26T07:20:33;4.77;;;1.23;;
72601;SDS011;60644;55.858;37.390;2023-02-26T07:22:58;4.05;;;1.25;;
72601;SDS011;60644;55.858;37.390;2023-02-26T07:25:25;3.47;;;0.80;;
72601;SDS011;60644;55.858;37.390;2023-02-26T07:27:51;3.87;;;1.00;;
72601;SDS011;60644;55.858;37.390;2023-02-26T07:30:17;5.05;;;1.13;;
72601;SDS011;60644;55.858;37.390;2023-02-26T07:32:43;4.80;;;1.05;;
72601;SDS011;60644;55.858;37.390;2023-02-26T07:35:09;5.25;;;1.65;;
72601;SDS011;60644;55.858;37.390;2023-02-26T07:37:35;4.47;;;0.90;;
72601;SDS011;60644;55.858;37.390;2023-02-26T07:40:01;5.07;;;1.50;;
72601;SDS011;60644;55.858;37.390;2023-02-26T07:42:28;4.50;;;1.20;;
72601;SDS011;60644;55.858;37.390;2023-02-26T07:44:54;5.43;;;1.70;;
72601;SDS011;60644;55.858;37.390;2023-02-26T07:47:20;4.05;;;1.00;;
72601;SDS011;60644;55.858;37.390;2023-02-26T07:49:46;4.83;;;1.00;;
72601;SDS011;60644;55.858;37.390;2023-02-26T07:52:12;5.40;;;1.38;;
72601;SDS011;60644;55.858;37.390;2023-02-26T07:54:40;5.38;;;1.50;;
72601;SDS011;60644;55.858;37.390;2023-02-26T07:57:06;4.57;;;1.00;;
72601;SDS011;60644;55.858;37.390;2023-02-26T07:59:32;4.33;;;1.30;;
72601;SDS011;60644;55.858;37.390;2023-02-26T08:01:58;5.05;;;1.65;;
72601;SDS011;60644;55.858;37.390;2023-02-26T08:04:24;3.25;;;0.70;;
72601;SDS011;60644;55.858;37.390;2023-02-26T08:06:50;4.05;;;1.02;;
72601;SDS011;60644;55.858;37.390;2023-02-26T08:09:19;4.32;;;0.88;;
72601;SDS011;60644;55.858;37.390;2023-02-26T08:11:49;4.13;;;1.05;;
72601;SDS011;60644;55.858;37.390;2023-02-26T08:14:15;4.70;;;1.30;;
72601;SDS011;60644;55.858;37.390;2023-02-26T08:16:41;2.88;;;0.50;;
72601;SDS011;60644;55.858;37.390;2023-02-26T08:19:07;3.50;;;0.55;;
72601;SDS011;60644;55.858;37.390;2023-02-26T08:21:33;4.68;;;0.90;;
72601;SDS011;60644;55.858;37.390;2023-02-26T08:23:59;4.03;;;0.73;;
72601;SDS011;60644;55.858;37.390;2023-02-26T08:26:25;3.53;;;0.70;;
72601;SDS011;60644;55.858;37.390;2023-02-26T08:28:51;2.35;;;0.50;;
72601;SDS011;60644;55.858;37.390;2023-02-26T08:31:17;2.65;;;0.50;;
72601;SDS011;60644;55.858;37.390;2023-02-26T08:33:43;4.10;;;0.30;;
72601;SDS011;60644;55.858;37.390;2023-02-26T08:36:09;1.83;;;0.35;;
72601;SDS011;60644;55.858;37.390;2023-02-26T08:38:36;2.70;;;0.45;;
72601;SDS011;60644;55.858;37.390;2023-02-26T08:41:02;3.13;;;0.60;;
72601;SDS011;60644;55.858;37.390;2023-02-26T08:43:28;3.03;;;0.47;;
72601;SDS011;60644;55.858;37.390;2023-02-26T08:45:54;2.42;;;0.30;;
72601;SDS011;60644;55.858;37.390;2023-02-26T08:48:23;2.38;;;0.40;;
72601;SDS011;60644;55.858;37.390;2023-02-26T08:50:51;2.08;;;0.30;;
72601;SDS011;60644;55.858;37.390;2023-02-26T08:53:17;2.92;;;0.60;;
72601;SDS011;60644;55.858;37.390;2023-02-26T08:55:46;2.93;;;0.40;;
72601;SDS011;60644;55.858;37.390;2023-02-26T08:58:13;3.63;;;0.40;;
72601;SDS011;60644;55.858;37.390;2023-02-26T09:00:39;2.80;;;0.68;;
72601;SDS011;60644;55.858;37.390;2023-02-26T09:03:05;1.93;;;0.37;;
72601;SDS011;60644;55.858;37.390;2023-02-26T09:05:31;2.92;;;0.43;;
72601;SDS011;60644;55.858;37.390;2023-02-26T09:07:57;4.22;;;0.55;;
72601;SDS011;60644;55.858;37.390;2023-02-26T09:10:23;2.27;;;0.40;;
72601;SDS011;60644;55.858;37.390;2023-02-26T09:12:49;2.83;;;0.50;;
72601;SDS011;60644;55.858;37.390;2023-02-26T09:15:15;3.00;;;0.47;;
72601;SDS011;60644;55.858;37.390;2023-02-26T09:17:41;3.58;;;0.75;;
72601;SDS011;60644;55.858;37.390;2023-02-26T09:20:07;3.83;;;0.83;;
72601;SDS011;60644;55.858;37.390;2023-02-26T09:22:34;2.35;;;0.50;;
72601;SDS011;60644;55.858;37.390;2023-02-26T09:25:01;3.47;;;0.50;;
72601;SDS011;60644;55.858;37.390;2023-02-26T09:27:29;2.88;;;0.40;;
72601;SDS011;60644;55.858;37.390;2023-02-26T09:29:55;3.27;;;0.40;;
72601;SDS011;60644;55.858;37.390;2023-02-26T09:32:21;3.40;;;0.65;;
72601;SDS011;60644;55.858;37.390;2023-02-26T09:34:47;2.00;;;0.30;;
72601;SDS011;60644;55.858;37.390;2023-02-26T09:37:13;3.13;;;0.30;;
72601;SDS011;60644;55.858;37.390;2023-02-26T09:39:39;1.77;;;0.30;;
72601;SDS011;60644;55.858;37.390;2023-02-26T09:44:43;1.83;;;0.30;;
72601;SDS011;60644;55.858;37.390;2023-02-26T09:47:23;3.10;;;0.43;;
72601;SDS011;60644;55.858;37.390;2023-02-26T09:50:00;2.55;;;0.30;;
72601;SDS011;60644;55.858;37.390;2023-02-26T09:57:51;2.83;;;0.50;;
72601;SDS011;60644;55.858;37.390;2023-02-26T10:00:28;3.55;;;0.40;;
72601;SDS011;60644;55.858;37.390;2023-02-26T10:03:11;2.38;;;0.40;;
72601;SDS011;60644;55.858;37.390;2023-02-26T10:09:15;2.63;;;0.35;;
72601;SDS011;60644;55.858;37.390;2023-02-26T10:14:18;1.80;;;0.30;;
72601;SDS011;60644;55.858;37.390;2023-02-26T10:16:58;2.15;;;0.32;;
72601;SDS011;60644;55.858;37.390;2023-02-26T10:19:33;3.27;;;0.50;;
72601;SDS011;60644;55.858;37.390;2023-02-26T10:22:10;1.48;;;0.20;;
72601;SDS011;60644;55.858;37.390;2023-02-26T10:25:01;2.28;;;0.25;;
72601;SDS011;60644;55.858;37.390;2023-02-26T10:30:36;2.15;;;0.30;;
72601;SDS011;60644;55.858;37.390;2023-02-26T10:33:32;3.83;;;0.40;;
72601;SDS011;60644;55.858;37.390;2023-02-26T10:36:03;3.28;;;0.50;;
72601;SDS011;60644;55.858;37.390;2023-02-26T10:38:41;5.10;;;0.70;;
72601;SDS011;60644;55.858;37.390;2023-02-26T10:41:09;3.38;;;0.50;;
72601;SDS011;60644;55.858;37.390;2023-02-26T10:43:47;5.75;;;0.68;;
72601;SDS011;60644;55.858;37.390;2023-02-26T10:51:49;2.97;;;0.55;;
72601;SDS011;60644;55.858;37.390;2023-02-26T10:54:26;3.13;;;0.60;;
72601;SDS011;60644;55.858;37.390;2023-02-26T10:56:58;4.20;;;0.70;;
72601;SDS011;60644;55.858;37.390;2023-02-26T10:59:24;2.53;;;0.30;;
72601;SDS011;60644;55.858;37.390;2023-02-26T11:01:51;3.22;;;0.50;;
72601;SDS011;60644;55.858;37.390;2023-02-26T11:04:20;4.07;;;0.50;;
72601;SDS011;60644;55.858;37.390;2023-02-26T11:06:55;3.95;;;0.65;;
72601;SDS011;60644;55.858;37.390;2023-02-26T11:11:54;3.03;;;0.50;;
72601;SDS011;60644;55.858;37.390;2023-02-26T11:14:26;3.22;;;0.55;;
72601;SDS011;60644;55.858;37.390;2023-02-26T11:16:54;4.10;;;0.70;;
72601;SDS011;60644;55.858;37.390;2023-02-26T11:19:30;2.70;;;0.55;;
72601;SDS011;60644;55.858;37.390;2023-02-26T11:21:59;2.53;;;0.40;;
72601;SDS011;60644;55.858;37.390;2023-02-26T11:24:29;4.40;;;0.70;;
72601;SDS011;60644;55.858;37.390;2023-02-26T11:26:59;3.88;;;0.75;;
72601;SDS011;60644;55.858;37.390;2023-02-26T11:29:38;3.05;;;0.70;;
72601;SDS011;60644;55.858;37.390;2023-02-26T11:32:12;4.55;;;0.45;;
72601;SDS011;60644;55.858;37.390;2023-02-26T11:34:50;4.18;;;0.70;;
72601;SDS011;60644;55.858;37.390;2023-02-26T11:37:21;2.30;;;0.60;;
72601;SDS011;60644;55.858;37.390;2023-02-26T11:39:55;4.22;;;0.70;;
72601;SDS011;60644;55.858;37.390;2023-02-26T11:42:33;3.97;;;0.75;;
72601;SDS011;60644;55.858;37.390;2023-02-26T11:45:03;3.00;;;0.60;;
72601;SDS011;60644;55.858;37.390;2023-02-26T11:47:31;2.60;;;0.32;;
72601;SDS011;60644;55.858;37.390;2023-02-26T11:50:02;4.57;;;0.70;;
72601;SDS011;60644;55.858;37.390;2023-02-26T11:52:39;3.22;;;0.70;;
72601;SDS011;60644;55.858;37.390;2023-02-26T11:55:17;4.22;;;0.52;;
72601;SDS011;60644;55.858;37.390;2023-02-26T11:57:47;5.18;;;0.77;;
72601;SDS011;60644;55.858;37.390;2023-02-26T12:00:19;3.22;;;0.68;;
72601;SDS011;60644;55.858;37.390;2023-02-26T12:02:46;3.57;;;0.70;;
72601;SDS011;60644;55.858;37.390;2023-02-26T12:05:13;3.97;;;0.80;;
72601;SDS011;60644;55.858;37.390;2023-02-26T12:07:41;2.65;;;0.40;;
72601;SDS011;60644;55.858;37.390;2023-02-26T12:10:19;3.03;;;0.40;;
72601;SDS011;60644;55.858;37.390;2023-02-26T12:13:23;5.47;;;0.83;;
72601;SDS011;60644;55.858;37.390;2023-02-26T12:15:57;5.15;;;0.45;;
72601;SDS011;60644;55.858;37.390;2023-02-26T12:18:37;4.20;;;1.00;;
72601;SDS011;60644;55.858;37.390;2023-02-26T12:21:42;6.00;;;1.33;;
72601;SDS011;60644;55.858;37.390;2023-02-26T12:24:45;4.60;;;1.10;;
72601;SDS011;60644;55.858;37.390;2023-02-26T12:35:31;5.75;;;1.40;;
72601;SDS011;60644;55.858;37.390;2023-02-26T12:53:33;5.55;;;1.50;;
72601;SDS011;60644;55.858;37.390;2023-02-26T12:56:33;4.90;;;1.73;;
72601;SDS011;60644;55.858;37.390;2023-02-26T13:12:39;5.80;;;2.20;;
72601;SDS011;60644;55.858;37.390;2023-02-26T13:15:40;6.20;;;2.42;;
72601;SDS011;60644;55.858;37.390;2023-02-26T13:21:18;6.93;;;2.47;;
72601;SDS011;60644;55.858;37.390;2023-02-26T13:23:53;8.50;;;3.17;;
72601;SDS011;60644;55.858;37.390;2023-02-26T13:26:30;6.23;;;2.20;;
72601;SDS011;60644;55.858;37.390;2023-02-26T13:28:59;6.18;;;2.70;;
72601;SDS011;60644;55.858;37.390;2023-02-26T13:31:54;7.38;;;2.53;;
72601;SDS011;60644;55.858;37.390;2023-02-26T13:35:16;6.25;;;2.13;;
72601;SDS011;60644;55.858;37.390;2023-02-26T13:37:19;6.43;;;2.30;;
72601;SDS011;60644;55.858;37.390;2023-02-26T13:42:53;7.90;;;2.85;;
72601;SDS011;60644;55.858;37.390;2023-02-26T13:53:50;6.17;;;2.13;;
72601;SDS011;60644;55.858;37.390;2023-02-26T14:01:54;7.60;;;2.92;;
72601;SDS011;60644;55.858;37.390;2023-02-26T14:04:24;8.93;;;3.67;;
72601;SDS011;60644;55.858;37.390;2023-02-26T14:10:03;8.45;;;3.35;;
72601;SDS011;60644;55.858;37.390;2023-02-26T14:12:41;6.20;;;2.78;;
72601;SDS011;60644;55.858;37.390;2023-02-26T14:25:36;9.38;;;3.78;;
72601;SDS011;60644;55.858;37.390;2023-02-26T14:28:29;9.23;;;3.72;;
72601;SDS011;60644;55.858;37.390;2023-02-26T14:33:31;10.73;;;4.37;;
72601;SDS011;60644;55.858;37.390;2023-02-26T14:36:05;10.18;;;5.07;;
72601;SDS011;60644;55.858;37.390;2023-02-26T14:38:40;12.05;;;4.57;;
72601;SDS011;60644;55.858;37.390;2023-02-26T14:44:00;11.40;;;5.13;;
72601;SDS011;60644;55.858;37.390;2023-02-26T14:46:31;10.80;;;4.77;;
72601;SDS011;60644;55.858;37.390;2023-02-26T14:48:59;10.25;;;4.00;;
72601;SDS011;60644;55.858;37.390;2023-02-26T14:51:40;10.80;;;5.22;;
72601;SDS011;60644;55.858;37.390;2023-02-26T14:54:42;12.10;;;5.88;;
72601;SDS011;60644;55.858;37.390;2023-02-26T14:58:18;11.25;;;4.82;;
72601;SDS011;60644;55.858;37.390;2023-02-26T15:25:35;12.43;;;5.78;;
72601;SDS011;60644;55.858;37.390;2023-02-26T15:28:04;13.93;;;5.60;;
72601;SDS011;60644;55.858;37.390;2023-02-26T15:30:34;13.32;;;4.95;;
72601;SDS011;60644;55.858;37.390;2023-02-26T15:33:02;12.73;;;5.18;;
72601;SDS011;60644;55.858;37.390;2023-02-26T15:35:30;12.15;;;4.95;;
72601;SDS011;60644;55.858;37.390;2023-02-26T15:37:58;10.00;;;4.22;;
72601;SDS011;60644;55.858;37.390;2023-02-26T15:40:28;11.13;;;5.50;;
72601;SDS011;60644;55.858;37.390;2023-02-26T15:42:57;13.95;;;8.68;;
72601;SDS011;60644;55.858;37.390;2023-02-26T15:45:32;14.07;;;6.00;;
72601;SDS011;60644;55.858;37.390;2023-02-26T15:48:03;10.68;;;5.22;;
72601;SDS011;60644;55.858;37.390;2023-02-26T15:50:33;14.07;;;5.95;;
72601;SDS011;60644;55.858;37.390;2023-02-26T15:53:03;17.60;;;6.10;;
72601;SDS011;60644;55.858;37.390;2023-02-26T15:55:31;13.52;;;6.03;;
72601;SDS011;60644;55.858;37.390;2023-02-26T15:58:00;12.63;;;4.25;;
72601;SDS011;60644;55.858;37.390;2023-02-26T16:00:28;15.85;;;6.32;;
72601;SDS011;60644;55.858;37.390;2023-02-26T16:02:57;13.77;;;5.95;;
72601;SDS011;60644;55.858;37.390;2023-02-26T16:05:27;12.80;;;4.90;;
72601;SDS011;60644;55.858;37.390;2023-02-26T16:07:53;13.40;;;6.13;;
72601;SDS011;60644;55.858;37.390;2023-02-26T16:10:28;12.05;;;4.22;;
72601;SDS011;60644;55.858;37.390;2023-02-26T16:13:03;11.95;;;5.30;;
72601;SDS011;60644;55.858;37.390;2023-02-26T16:15:31;11.18;;;5.47;;
72601;SDS011;60644;55.858;37.390;2023-02-26T16:18:00;9.23;;;3.50;;
72601;SDS011;60644;55.858;37.390;2023-02-26T16:20:31;8.73;;;3.28;;
72601;SDS011;60644;55.858;37.390;2023-02-26T16:23:06;10.63;;;3.72;;
72601;SDS011;60644;55.858;37.390;2023-02-26T16:28:19;11.57;;;5.10;;
72601;SDS011;60644;55.858;37.390;2023-02-26T16:30:56;9.43;;;3.60;;
72601;SDS011;60644;55.858;37.390;2023-02-26T16:33:24;9.52;;;3.47;;
72601;SDS011;60644;55.858;37.390;2023-02-26T16:35:56;11.38;;;4.57;;
72601;SDS011;60644;55.858;37.390;2023-02-26T16:41:35;11.80;;;4.30;;
72601;SDS011;60644;55.858;37.390;2023-02-26T16:44:26;11.40;;;4.60;;
72601;SDS011;60644;55.858;37.390;2023-02-26T16:46:56;10.48;;;4.55;;
72601;SDS011;60644;55.858;37.390;2023-02-26T16:49:41;11.73;;;4.47;;
72601;SDS011;60644;55.858;37.390;2023-02-26T16:52:11;8.15;;;3.45;;
72601;SDS011;60644;55.858;37.390;2023-02-26T16:54:46;7.57;;;2.78;;
72601;SDS011;60644;55.858;37.390;2023-02-26T16:57:24;9.87;;;4.13;;
72601;SDS011;60644;55.858;37.390;2023-02-26T17:00:02;11.00;;;3.33;;
72601;SDS011;60644;55.858;37.390;2023-02-26T17:02:34;9.75;;;3.80;;
72601;SDS011;60644;55.858;37.390;2023-02-26T17:05:04;9.38;;;3.78;;
72601;SDS011;60644;55.858;37.390;2023-02-26T17:07:48;8.80;;;4.05;;
72601;SDS011;60644;55.858;37.390;2023-02-26T17:10:22;10.20;;;3.77;;
72601;SDS011;60644;55.858;37.390;2023-02-26T17:13:05;9.77;;;3.92;;
72601;SDS011;60644;55.858;37.390;2023-02-26T17:15:38;11.60;;;4.78;;
72601;SDS011;60644;55.858;37.390;2023-02-26T17:18:05;9.73;;;3.72;;
72601;SDS011;60644;55.858;37.390;2023-02-26T17:20:31;10.23;;;3.45;;
72601;SDS011;60644;55.858;37.390;2023-02-26T17:22:58;10.17;;;3.37;;
72601;SDS011;60644;55.858;37.390;2023-02-26T17:25:26;8.45;;;3.60;;
72601;SDS011;60644;55.858;37.390;2023-02-26T17:27:59;10.38;;;4.75;;
72601;SDS011;60644;55.858;37.390;2023-02-26T17:30:26;8.57;;;3.47;;
72601;SDS011;60644;55.858;37.390;2023-02-26T17:32:57;10.40;;;3.50;;
72601;SDS011;60644;55.858;37.390;2023-02-26T17:35:27;11.43;;;4.73;;
72601;SDS011;60644;55.858;37.390;2023-02-26T17:37:53;11.75;;;4.75;;
72601;SDS011;60644;55.858;37.390;2023-02-26T17:40:24;10.50;;;3.97;;
72601;SDS011;60644;55.858;37.390;2023-02-26T17:42:56;8.68;;;3.35;;
72601;SDS011;60644;55.858;37.390;2023-02-26T17:45:24;10.10;;;3.72;;
72601;SDS011;60644;55.858;37.390;2023-02-26T17:47:50;10.13;;;4.43;;
72601;SDS011;60644;55.858;37.390;2023-02-26T17:50:22;9.45;;;4.30;;
72601;SDS011;60644;55.858;37.390;2023-02-26T17:52:57;11.32;;;4.53;;